createdAt,value
2018-09-28T00:01:56.538Z,9.10
2018-09-28T00:04:24.420Z,9.10
2018-09-28T00:06:52.373Z,9.10
2018-09-28T00:09:20.011Z,9.10
2018-09-28T00:11:47.621Z,9.10
2018-09-28T00:14:15.240Z,9.10
2018-09-28T00:16:43.044Z,9.10
2018-09-28T00:19:10.690Z,9.10
2018-09-28T00:21:38.332Z,9.00
2018-09-28T00:24:06.188Z,9.00
2018-09-28T00:26:33.823Z,9.00
2018-09-28T00:29:01.517Z,8.90
2018-09-28T00:31:29.424Z,8.90
2018-09-28T00:33:57.004Z,8.90
2018-09-28T00:36:24.659Z,8.80
2018-09-28T00:38:52.321Z,8.80
2018-09-28T00:41:19.982Z,8.80
2018-09-28T00:43:47.578Z,8.80
2018-09-28T00:46:15.252Z,8.70
2018-09-28T00:48:43.120Z,8.70
2018-09-28T00:51:10.706Z,8.70
2018-09-28T00:53:38.489Z,8.70
2018-09-28T00:56:06.552Z,8.70
2018-09-28T00:58:34.323Z,8.60
2018-09-28T01:01:01.966Z,8.60
2018-09-28T01:03:29.579Z,8.70
2018-09-28T01:05:57.261Z,8.60
2018-09-28T01:08:24.905Z,8.60
2018-09-28T01:10:52.584Z,8.50
2018-09-28T01:13:20.194Z,8.50
2018-09-28T01:15:47.823Z,8.40
2018-09-28T01:18:15.433Z,8.50
2018-09-28T01:20:43.081Z,8.50
2018-09-28T01:23:10.681Z,8.40
2018-09-28T01:25:38.239Z,8.40
2018-09-28T01:28:05.912Z,8.40
2018-09-28T01:30:33.852Z,8.40
2018-09-28T01:33:01.466Z,8.40
2018-09-28T01:35:29.099Z,8.30
2018-09-28T01:37:56.791Z,8.30
2018-09-28T01:40:24.477Z,8.40
2018-09-28T01:42:52.127Z,8.40
2018-09-28T01:45:19.706Z,8.30
2018-09-28T01:47:47.408Z,8.20
2018-09-28T01:50:15.323Z,8.20
2018-09-28T01:52:43.049Z,8.10
2018-09-28T01:55:10.732Z,8.10
2018-09-28T01:57:38.404Z,8.10
2018-09-28T02:00:06.129Z,8.10
2018-09-28T02:02:33.729Z,8.10
2018-09-28T02:05:01.332Z,8.10
2018-09-28T02:07:28.996Z,8.10
2018-09-28T02:09:56.668Z,8.10
2018-09-28T02:12:24.348Z,8.00
2018-09-28T02:14:51.972Z,7.90
2018-09-28T02:17:19.611Z,7.80
2018-09-28T02:19:47.189Z,7.80
2018-09-28T02:22:14.821Z,7.90
2018-09-28T02:24:42.669Z,7.90
2018-09-28T02:27:10.276Z,7.90
2018-09-28T02:29:38.025Z,7.80
2018-09-28T02:32:06.344Z,7.80
2018-09-28T02:34:34.005Z,7.80
2018-09-28T02:37:01.602Z,7.80
2018-09-28T02:39:29.225Z,7.80
2018-09-28T02:41:56.900Z,7.80
2018-09-28T02:44:24.713Z,7.80
2018-09-28T02:46:52.349Z,7.80
2018-09-28T02:49:19.940Z,7.70
2018-09-28T02:51:47.601Z,7.70
2018-09-28T02:54:15.221Z,7.60
2018-09-28T02:56:42.937Z,7.60
2018-09-28T02:59:10.552Z,7.60
2018-09-28T03:01:38.504Z,7.60
2018-09-28T03:04:06.248Z,7.60
2018-09-28T03:06:33.868Z,7.50
2018-09-28T03:09:01.549Z,7.50
2018-09-28T03:11:29.288Z,7.50
2018-09-28T03:13:56.934Z,7.50
2018-09-28T03:16:24.716Z,7.50
2018-09-28T03:18:52.354Z,7.50
2018-09-28T03:21:19.945Z,7.50
2018-09-28T03:23:47.815Z,7.50
2018-09-28T03:26:15.449Z,7.50
2018-09-28T03:28:43.134Z,7.50
2018-09-28T03:31:10.721Z,7.40
2018-09-28T03:33:38.397Z,7.40
2018-09-28T03:36:05.932Z,7.40
2018-09-28T03:38:33.814Z,7.30
2018-09-28T03:41:01.345Z,7.40
2018-09-28T03:43:28.991Z,7.40
2018-09-28T03:45:56.598Z,7.40
2018-09-28T03:48:24.287Z,7.30
2018-09-28T03:50:51.913Z,7.30
2018-09-28T03:53:19.529Z,7.30
2018-09-28T03:55:47.364Z,7.30
2018-09-28T03:58:15.017Z,7.20
2018-09-28T04:00:42.561Z,7.20
2018-09-28T04:03:10.139Z,7.20
2018-09-28T04:05:37.756Z,7.20
2018-09-28T04:08:05.471Z,7.20
2018-09-28T04:10:33.169Z,7.20
2018-09-28T04:13:00.803Z,7.20
2018-09-28T04:15:28.324Z,7.10
2018-09-28T04:17:56.089Z,7.10
2018-09-28T04:20:23.629Z,7.10
2018-09-28T04:22:51.351Z,7.10
2018-09-28T04:25:18.916Z,7.10
2018-09-28T04:27:46.659Z,7.10
2018-09-28T04:30:14.236Z,7.00
2018-09-28T04:32:41.865Z,7.00
2018-09-28T04:35:09.457Z,6.90
2018-09-28T04:40:13.276Z,6.90
2018-09-28T04:42:40.834Z,7.00
2018-09-28T04:45:08.446Z,6.90
2018-09-28T04:47:36.056Z,6.90
2018-09-28T04:50:03.664Z,6.80
2018-09-28T04:52:31.288Z,6.80
2018-09-28T04:54:59.950Z,6.90
2018-09-28T04:57:27.556Z,6.80
2018-09-28T04:59:55.123Z,6.80
2018-09-28T05:02:22.698Z,6.80
2018-09-28T05:04:50.275Z,6.80
2018-09-28T05:07:18.315Z,6.70
2018-09-28T05:09:45.836Z,6.70
2018-09-28T05:17:05.852Z,6.70
2018-09-28T05:19:33.475Z,6.70
2018-09-28T05:22:01.093Z,6.70
2018-09-28T05:24:29.016Z,6.70
2018-09-28T05:26:56.996Z,6.70
2018-09-28T05:29:24.612Z,6.80
2018-09-28T05:31:52.432Z,6.70
2018-09-28T05:34:19.961Z,6.70
2018-09-28T05:36:47.665Z,6.70
2018-09-28T05:39:15.292Z,6.70
2018-09-28T05:41:42.908Z,6.60
2018-09-28T05:44:10.517Z,6.60
2018-09-28T05:46:38.063Z,6.60
2018-09-28T05:49:05.706Z,6.70
2018-09-28T05:51:33.375Z,6.70
2018-09-28T05:54:01.128Z,6.70
2018-09-28T05:56:28.744Z,6.70
2018-09-28T05:59:01.869Z,6.70
2018-09-28T06:01:35.137Z,6.70
2018-09-28T06:04:08.333Z,6.70
2018-09-28T06:06:36.038Z,6.80
2018-09-28T06:09:05.656Z,6.80
2018-09-28T06:11:33.329Z,6.90
2018-09-28T06:14:01.058Z,6.90
2018-09-28T06:16:28.664Z,6.90
2018-09-28T06:18:56.536Z,7.00
2018-09-28T06:21:24.288Z,7.00
2018-09-28T06:23:51.920Z,7.10
2018-09-28T06:26:19.815Z,7.10
2018-09-28T06:28:47.529Z,7.20
2018-09-28T06:31:15.189Z,7.30
2018-09-28T06:33:42.863Z,7.30
2018-09-28T06:36:10.500Z,7.40
2018-09-28T06:38:38.172Z,7.40
2018-09-28T06:41:05.982Z,7.50
2018-09-28T06:43:33.595Z,7.60
2018-09-28T06:46:01.171Z,7.60
2018-09-28T06:48:28.823Z,7.70
2018-09-28T06:50:56.457Z,7.80
2018-09-28T06:53:25.037Z,7.80
2018-09-28T06:55:52.705Z,7.90
2018-09-28T06:58:20.972Z,8.00
2018-09-28T07:00:48.485Z,8.00
2018-09-28T07:03:16.141Z,8.10
2018-09-28T07:05:43.834Z,8.20
2018-09-28T07:08:11.476Z,8.30
2018-09-28T07:10:39.094Z,8.40
2018-09-28T07:13:06.729Z,8.50
2018-09-28T07:15:34.356Z,8.60
2018-09-28T07:18:02.151Z,8.70
2018-09-28T07:20:29.976Z,8.80
2018-09-28T07:22:57.776Z,8.90
2018-09-28T07:25:25.353Z,9.00
2018-09-28T07:27:52.892Z,9.00
2018-09-28T07:30:20.626Z,9.10
2018-09-28T07:32:48.179Z,9.20
2018-09-28T07:35:15.801Z,9.40
2018-09-28T07:37:43.472Z,9.50
2018-09-28T07:40:11.126Z,9.70
2018-09-28T07:42:38.825Z,9.90
2018-09-28T07:45:06.572Z,10.10
2018-09-28T07:47:34.168Z,10.30
2018-09-28T07:50:01.829Z,10.40
2018-09-28T07:52:29.559Z,10.50
2018-09-28T07:54:57.235Z,10.60
2018-09-28T07:57:24.881Z,10.60
2018-09-28T07:59:52.573Z,10.80
2018-09-28T08:02:20.180Z,11.00
2018-09-28T08:04:47.808Z,11.20
2018-09-28T08:07:15.446Z,11.30
2018-09-28T08:09:43.085Z,11.40
2018-09-28T08:12:10.712Z,11.50
2018-09-28T08:14:38.584Z,11.70
2018-09-28T08:17:06.178Z,11.80
2018-09-28T08:22:07.193Z,12.10
2018-09-28T08:24:34.824Z,12.30
2018-09-28T08:27:02.593Z,12.40
2018-09-28T08:29:30.440Z,12.60
2018-09-28T08:31:58.040Z,12.80
2018-09-28T08:34:26.036Z,12.90
2018-09-28T08:36:53.808Z,13.00
2018-09-28T08:39:21.263Z,13.20
2018-09-28T08:41:48.908Z,13.30
2018-09-28T08:44:16.718Z,13.40
2018-09-28T08:46:50.983Z,13.50
2018-09-28T08:49:18.717Z,13.70
2018-09-28T08:51:53.046Z,13.80
2018-09-28T08:54:20.688Z,13.90
2018-09-28T08:56:48.382Z,14.10
2018-09-28T08:59:16.028Z,14.20
2018-09-28T09:01:43.667Z,14.40
2018-09-28T09:04:11.527Z,14.60
2018-09-28T09:06:39.146Z,14.70
2018-09-28T09:09:09.031Z,14.80
2018-09-28T09:11:36.806Z,14.90
2018-09-28T09:14:04.441Z,15.10
2018-09-28T09:16:32.044Z,15.20
2018-09-28T09:18:59.735Z,15.50
2018-09-28T09:21:27.392Z,15.60
2018-09-28T09:23:55.056Z,15.70
2018-09-28T09:26:22.761Z,15.90
2018-09-28T09:28:50.366Z,16.00
2018-09-28T09:31:17.975Z,16.20
2018-09-28T09:33:45.580Z,16.40
2018-09-28T09:36:13.135Z,16.70
2018-09-28T09:38:40.840Z,16.90
2018-09-28T09:41:08.694Z,17.10
2018-09-28T09:43:36.333Z,17.30
2018-09-28T09:46:03.970Z,17.60
2018-09-28T09:48:32.152Z,17.80
2018-09-28T09:50:59.725Z,18.10
2018-09-28T09:53:27.556Z,18.30
2018-09-28T09:55:55.181Z,18.50
2018-09-28T09:58:22.924Z,18.70
2018-09-28T10:00:56.165Z,18.70
2018-09-28T10:05:57.112Z,18.90
2018-09-28T10:08:24.984Z,19.40
2018-09-28T10:10:52.675Z,19.50
2018-09-28T10:13:20.536Z,19.60
2018-09-28T10:15:48.176Z,19.80
2018-09-28T10:18:15.771Z,20.00
2018-09-28T10:20:43.379Z,20.00
2018-09-28T10:23:11.028Z,20.20
2018-09-28T10:25:38.967Z,20.50
2018-09-28T10:28:06.536Z,20.70
2018-09-28T10:30:34.216Z,20.70
2018-09-28T10:33:01.813Z,20.80
2018-09-28T10:35:29.486Z,20.90
2018-09-28T10:37:57.260Z,21.10
2018-09-28T10:40:25.064Z,21.30
2018-09-28T10:42:52.544Z,21.30
2018-09-28T10:45:20.253Z,21.50
2018-09-28T10:47:47.863Z,21.70
2018-09-28T10:50:15.430Z,21.80
2018-09-28T10:52:43.242Z,21.80
2018-09-28T10:55:10.837Z,21.70
2018-09-28T10:57:38.490Z,21.70
2018-09-28T11:00:06.268Z,21.80
2018-09-28T11:02:33.856Z,21.70
2018-09-28T11:05:01.497Z,21.60
2018-09-28T11:07:29.097Z,21.50
2018-09-28T11:09:56.716Z,21.40
2018-09-28T11:12:24.938Z,21.40
2018-09-28T11:14:52.591Z,21.40
2018-09-28T11:17:20.197Z,21.40
2018-09-28T11:19:47.840Z,21.50
2018-09-28T11:22:15.499Z,21.60
2018-09-28T11:24:43.136Z,21.60
2018-09-28T11:27:10.757Z,21.60
2018-09-28T11:29:38.849Z,21.50
2018-09-28T11:32:07.071Z,21.40
2018-09-28T11:34:34.691Z,21.50
2018-09-28T11:37:02.308Z,21.50
2018-09-28T11:39:29.933Z,21.50
2018-09-28T11:41:57.580Z,21.60
2018-09-28T11:44:25.223Z,21.50
2018-09-28T11:46:52.878Z,21.40
2018-09-28T11:49:20.480Z,21.10
2018-09-28T11:51:48.143Z,21.10
2018-09-28T11:54:15.739Z,21.20
2018-09-28T11:56:43.392Z,21.20
2018-09-28T11:59:11.010Z,21.30
2018-09-28T12:01:38.675Z,21.30
2018-09-28T12:04:06.595Z,21.40
2018-09-28T12:06:34.273Z,21.40
2018-09-28T12:09:01.842Z,21.40
2018-09-28T12:11:29.486Z,21.40
2018-09-28T12:13:57.164Z,21.40
2018-09-28T12:16:24.806Z,21.30
2018-09-28T12:18:52.513Z,21.40
2018-09-28T12:21:20.214Z,21.30
2018-09-28T12:23:47.778Z,21.20
2018-09-28T12:26:15.392Z,21.20
2018-09-28T12:28:43.028Z,21.20
2018-09-28T12:31:10.678Z,21.30
2018-09-28T12:33:38.349Z,21.40
2018-09-28T12:36:06.112Z,21.40
2018-09-28T12:38:33.768Z,21.40
2018-09-28T12:41:01.372Z,21.40
2018-09-28T12:43:35.029Z,21.40
2018-09-28T12:45:56.641Z,21.40
2018-09-28T12:48:24.297Z,21.30
2018-09-28T12:50:51.888Z,21.30
2018-09-28T12:53:19.488Z,21.20
2018-09-28T12:55:47.123Z,21.20
2018-09-28T12:58:14.741Z,21.20
2018-09-28T13:00:42.406Z,21.20
2018-09-28T13:03:10.012Z,21.20
2018-09-28T13:05:37.693Z,21.20
2018-09-28T13:08:05.496Z,21.00
2018-09-28T13:10:33.119Z,21.00
2018-09-28T13:13:00.783Z,21.00
2018-09-28T13:15:28.644Z,21.00
2018-09-28T13:17:56.481Z,21.00
2018-09-28T13:20:24.429Z,21.10
2018-09-28T13:22:52.065Z,21.10
2018-09-28T13:25:19.735Z,21.00
2018-09-28T13:27:47.352Z,21.00
2018-09-28T13:30:15.142Z,21.00
2018-09-28T13:32:42.785Z,20.90
2018-09-28T13:35:10.416Z,20.80
2018-09-28T13:37:38.077Z,20.80
2018-09-28T13:40:05.753Z,20.90
2018-09-28T13:42:33.414Z,20.90
2018-09-28T13:45:01.214Z,20.90
2018-09-28T13:47:28.836Z,20.90
2018-09-28T13:49:56.437Z,20.90
2018-09-28T13:52:24.060Z,20.80
2018-09-28T13:54:51.727Z,20.90
2018-09-28T13:57:19.433Z,20.90
2018-09-28T13:59:47.099Z,20.80
2018-09-28T14:02:14.797Z,20.80
2018-09-28T14:04:42.436Z,20.70
2018-09-28T14:07:10.193Z,20.70
2018-09-28T14:09:37.993Z,20.60
2018-09-28T14:12:05.914Z,20.60
2018-09-28T14:14:33.955Z,20.60
2018-09-28T14:17:01.544Z,20.60
2018-09-28T14:19:29.213Z,20.60
2018-09-28T14:21:56.792Z,20.60
2018-09-28T14:24:25.111Z,20.60
2018-09-28T14:26:52.771Z,20.70
2018-09-28T14:29:20.376Z,20.60
2018-09-28T14:31:48.007Z,20.50
2018-09-28T14:34:16.027Z,20.50
2018-09-28T14:36:43.730Z,20.50
2018-09-28T14:39:11.337Z,20.40
2018-09-28T14:41:39.043Z,20.40
2018-09-28T14:44:07.447Z,20.40
2018-09-28T14:46:35.030Z,20.30
2018-09-28T14:49:02.922Z,20.30
2018-09-28T14:51:30.828Z,20.20
2018-09-28T14:53:58.527Z,20.10
2018-09-28T14:56:26.336Z,20.10
2018-09-28T14:58:54.048Z,20.10
2018-09-28T15:01:21.788Z,20.10
2018-09-28T15:03:49.667Z,20.10
2018-09-28T15:06:17.607Z,20.10
2018-09-28T15:08:45.286Z,20.10
2018-09-28T15:11:12.892Z,20.00
2018-09-28T15:13:40.582Z,19.90
2018-09-28T15:16:08.271Z,19.90
2018-09-28T15:18:35.856Z,19.90
2018-09-28T15:21:03.521Z,19.90
2018-09-28T15:23:31.153Z,19.90
2018-09-28T15:25:58.801Z,19.90
2018-09-28T15:28:26.719Z,19.90
2018-09-28T15:30:54.441Z,19.80
2018-09-28T15:33:22.116Z,19.80
2018-09-28T15:35:49.747Z,19.80
2018-09-28T15:38:17.356Z,19.70
2018-09-28T15:40:45.005Z,19.60
2018-09-28T15:43:12.702Z,19.60
2018-09-28T15:45:40.370Z,19.50
2018-09-28T15:48:08.182Z,19.50
2018-09-28T15:50:35.868Z,19.50
2018-09-28T15:53:03.563Z,19.40
2018-09-28T15:55:31.143Z,19.30
2018-09-28T15:57:58.808Z,19.30
2018-09-28T16:00:26.562Z,19.30
2018-09-28T16:02:54.384Z,19.30
2018-09-28T16:05:22.016Z,19.20
2018-09-28T16:07:49.672Z,19.20
2018-09-28T16:10:17.752Z,19.20
2018-09-28T16:12:45.447Z,19.20
2018-09-28T16:15:13.048Z,19.20
2018-09-28T16:17:40.680Z,19.20
2018-09-28T16:20:08.402Z,19.10
2018-09-28T16:22:36.031Z,19.10
2018-09-28T16:25:03.824Z,19.10
2018-09-28T16:27:38.181Z,19.00
2018-09-28T16:30:05.866Z,19.00
2018-09-28T16:32:33.565Z,19.00
2018-09-28T16:35:01.430Z,18.90
2018-09-28T16:37:29.114Z,18.80
2018-09-28T16:39:56.740Z,18.90
2018-09-28T16:42:24.501Z,18.80
2018-09-28T16:44:52.110Z,18.80
2018-09-28T16:47:19.745Z,18.70
2018-09-28T16:49:47.476Z,18.60
2018-09-28T16:52:15.147Z,18.60
2018-09-28T16:54:42.787Z,18.50
2018-09-28T16:57:10.501Z,18.40
2018-09-28T16:59:38.168Z,18.30
2018-09-28T17:02:05.917Z,18.30
2018-09-28T17:04:33.635Z,18.20
2018-09-28T17:07:01.536Z,18.10
2018-09-28T17:09:29.184Z,18.10
2018-09-28T17:11:57.817Z,18.00
2018-09-28T17:14:25.488Z,18.00
2018-09-28T17:16:53.353Z,17.90
2018-09-28T17:19:21.107Z,17.80
2018-09-28T17:21:48.744Z,17.80
2018-09-28T17:24:16.426Z,17.70
2018-09-28T17:26:44.041Z,17.60
2018-09-28T17:29:11.697Z,17.50
2018-09-28T17:31:39.349Z,17.40
2018-09-28T17:34:07.029Z,17.30
2018-09-28T17:36:34.712Z,17.30
2018-09-28T17:39:02.430Z,17.30
2018-09-28T17:41:30.086Z,17.30
2018-09-28T17:43:57.736Z,17.20
2018-09-28T17:46:25.402Z,17.10
2018-09-28T17:48:53.049Z,17.10
2018-09-28T17:51:20.665Z,17.00
2018-09-28T17:53:48.434Z,16.90
2018-09-28T17:56:16.026Z,16.90
2018-09-28T17:58:43.713Z,16.90
2018-09-28T18:01:11.397Z,16.80
2018-09-28T18:03:39.067Z,16.80
2018-09-28T18:06:06.728Z,16.70
2018-09-28T18:08:34.488Z,16.70
2018-09-28T18:11:02.801Z,16.60
2018-09-28T18:13:30.450Z,16.60
2018-09-28T18:15:58.118Z,16.60
2018-09-28T18:18:25.889Z,16.50
2018-09-28T18:20:53.569Z,16.50
2018-09-28T18:23:21.445Z,16.50
2018-09-28T18:25:49.079Z,16.40
2018-09-28T18:28:16.690Z,16.40
2018-09-28T18:30:44.486Z,16.30
2018-09-28T18:33:12.126Z,16.30
2018-09-28T18:35:39.929Z,16.30
2018-09-28T18:38:08.157Z,16.20
2018-09-28T18:40:36.608Z,16.10
2018-09-28T18:43:04.227Z,16.10
2018-09-28T18:45:31.937Z,16.10
2018-09-28T18:47:59.697Z,16.00
2018-09-28T18:50:27.433Z,16.00
2018-09-28T18:52:55.108Z,15.90
2018-09-28T18:55:24.782Z,15.80
2018-09-28T18:57:52.447Z,15.80
2018-09-28T19:00:20.132Z,15.70
2018-09-28T19:02:47.868Z,15.60
2018-09-28T19:05:15.537Z,15.60
2018-09-28T19:07:43.161Z,15.60
2018-09-28T19:10:10.865Z,15.50
2018-09-28T19:12:38.561Z,15.50
2018-09-28T19:15:06.514Z,15.40
2018-09-28T19:17:34.141Z,15.30
2018-09-28T19:20:01.889Z,15.30
2018-09-28T19:22:29.524Z,15.20
2018-09-28T19:24:57.227Z,15.20
2018-09-28T19:27:25.020Z,15.20
2018-09-28T19:29:53.641Z,15.10
2018-09-28T19:32:21.288Z,15.00
2018-09-28T19:34:48.922Z,15.00
2018-09-28T19:37:16.605Z,14.80
2018-09-28T19:39:44.247Z,14.80
2018-09-28T19:42:11.872Z,14.80
2018-09-28T19:44:39.493Z,14.70
2018-09-28T19:47:07.149Z,14.70
2018-09-28T19:49:34.791Z,14.70
2018-09-28T19:52:02.640Z,14.70
2018-09-28T19:54:30.280Z,14.70
2018-09-28T19:56:58.032Z,14.70
2018-09-28T19:59:25.693Z,14.60
2018-09-28T20:01:53.384Z,14.50
2018-09-28T20:04:21.062Z,14.40
2018-09-28T20:06:49.469Z,14.40
2018-09-28T20:09:17.139Z,14.30
2018-09-28T20:11:44.810Z,14.20
2018-09-28T20:14:12.464Z,14.20
2018-09-28T20:16:40.148Z,14.20
2018-09-28T20:19:07.785Z,14.10
2018-09-28T20:21:35.488Z,14.00
2018-09-28T20:24:03.226Z,14.00
2018-09-28T20:26:30.890Z,13.90
2018-09-28T20:28:58.531Z,13.90
2018-09-28T20:31:26.234Z,13.80
2018-09-28T20:33:53.934Z,13.80
2018-09-28T20:36:21.556Z,13.80
2018-09-28T20:38:49.200Z,13.80
2018-09-28T20:41:16.884Z,13.80
2018-09-28T20:43:44.563Z,13.70
2018-09-28T20:46:12.301Z,13.70
2018-09-28T20:48:39.942Z,13.70
2018-09-28T20:51:07.614Z,13.80
2018-09-28T20:53:35.292Z,13.80
2018-09-28T20:56:02.951Z,13.80
2018-09-28T20:58:30.568Z,13.70
2018-09-28T21:00:58.254Z,13.60
2018-09-28T21:03:25.893Z,13.50
2018-09-28T21:05:53.921Z,13.50
2018-09-28T21:08:21.595Z,13.40
2018-09-28T21:10:49.452Z,13.40
2018-09-28T21:13:17.097Z,13.40
2018-09-28T21:15:44.738Z,13.40
2018-09-28T21:18:12.366Z,13.40
2018-09-28T21:20:40.228Z,13.30
2018-09-28T21:23:08.174Z,13.10
2018-09-28T21:25:35.810Z,13.00
2018-09-28T21:28:03.450Z,12.90
2018-09-28T21:30:31.076Z,12.90
2018-09-28T21:32:58.704Z,12.80
2018-09-28T21:35:26.410Z,12.70
2018-09-28T21:37:54.228Z,12.70
2018-09-28T21:40:21.834Z,12.70
2018-09-28T21:42:49.508Z,12.60
2018-09-28T21:45:17.376Z,12.60
2018-09-28T21:47:45.004Z,12.60
2018-09-28T21:50:12.614Z,12.60
2018-09-28T21:52:40.236Z,12.60
2018-09-28T21:55:07.800Z,12.60
2018-09-28T21:57:35.422Z,12.50
2018-09-28T22:00:03.137Z,12.50
2018-09-28T22:02:30.757Z,12.50
2018-09-28T22:04:58.436Z,12.60
2018-09-28T22:07:26.082Z,12.50
2018-09-28T22:09:53.691Z,12.50
2018-09-28T22:12:21.425Z,12.50
2018-09-28T22:14:49.073Z,12.50
2018-09-28T22:17:16.957Z,12.50
2018-09-28T22:19:44.618Z,12.40
2018-09-28T22:22:12.473Z,12.40
2018-09-28T22:24:40.237Z,12.40
2018-09-28T22:27:07.877Z,12.40
2018-09-28T22:29:35.700Z,12.30
2018-09-28T22:32:03.304Z,12.30
2018-09-28T22:34:30.929Z,12.30
2018-09-28T22:36:58.536Z,12.30
2018-09-28T22:39:26.170Z,12.30
2018-09-28T22:41:53.839Z,12.30
2018-09-28T22:44:21.449Z,12.40
2018-09-28T22:46:49.089Z,12.30
2018-09-28T22:49:16.727Z,12.30
2018-09-28T22:51:44.360Z,12.20
2018-09-28T22:54:11.904Z,12.20
2018-09-28T22:56:39.516Z,12.20
2018-09-28T22:59:07.628Z,12.20
2018-09-28T23:01:37.175Z,12.20
2018-09-28T23:04:04.824Z,12.20
2018-09-28T23:06:32.488Z,12.10
2018-09-28T23:09:00.151Z,12.20
2018-09-28T23:11:27.771Z,12.10
2018-09-28T23:13:55.388Z,12.00
2018-09-28T23:16:23.056Z,12.00
2018-09-28T23:18:50.685Z,12.00
2018-09-28T23:21:18.388Z,12.00
2018-09-28T23:23:45.988Z,11.90
2018-09-28T23:26:13.604Z,11.90
2018-09-28T23:28:41.508Z,11.80
2018-09-28T23:31:09.152Z,11.80
2018-09-28T23:33:36.929Z,11.80
2018-09-28T23:36:04.604Z,11.80
2018-09-28T23:38:32.292Z,11.80
2018-09-28T23:40:59.901Z,11.80
2018-09-28T23:43:27.556Z,11.80
2018-09-28T23:45:55.182Z,11.70
2018-09-28T23:48:22.859Z,11.70
2018-09-28T23:50:50.494Z,11.70
2018-09-28T23:53:18.204Z,11.70
2018-09-28T23:55:46.061Z,11.70
2018-09-28T23:58:13.664Z,11.70
